This is the latest recevied weather packets stored in our database for station/object HK6RM-16. If no packets are shown the sender has not sent any weather packets the latest 10 day(s).
| Time | Temp. | Humidity | Pressure | Rain* | Wind** | Luminosity | Snow |
|---|---|---|---|---|---|---|---|
| 1787507083 | 18.33° C | 74% | 1013 hPa | 0 mm | - | - | - |
| 1787506123 | 18.33° C | 74% | 1014 hPa | 0 mm | - | - | - |
| 1787505162 | 17.78° C | 74% | 1014 hPa | 0 mm | - | - | - |
| 1787504202 | 17.78° C | 76% | 1014 hPa | 0 mm | - | - | - |
| 1787503241 | 17.78° C | 76% | 1014 hPa | 0 mm | - | - | - |
| 1787502281 | 17.78° C | 76% | 1015 hPa | 0 mm | - | - | - |
| 1787501320 | 17.78° C | 76% | 1015 hPa | 0 mm | - | - | - |
| 1787500360 | 17.78° C | 74% | 1015 hPa | 0 mm | - | - | - |
| 1787499400 | 18.33° C | 72% | 1015 hPa | 0 mm | - | - | - |
| 1787498439 | 18.89° C | 70% | 1015 hPa | 0 mm | - | - | - |
| 1787497478 | 18.89° C | 68% | 1015 hPa | 0 mm | - | - | - |
| 1787496518 | 19.44° C | 68% | 1015 hPa | 0 mm | - | - | - |
| 1787495557 | 17.78° C | 63% | 1016 hPa | 0 mm | - | - | - |
| 1787494597 | 17.78° C | 63% | 1016 hPa | 0 mm | - | - | - |
| 1787493636 | 18.33° C | 63% | 1016 hPa | 0 mm | - | - | - |
| 1787492676 | 13.89° C | 77% | 1016 hPa | 0 mm | - | - | - |
| 1787491715 | 14.44° C | 77% | 1017 hPa | 0 mm | - | - | - |
| 1787490755 | 14.44° C | 77% | 1017 hPa | 0 mm | - | - | - |
| 1787489794 | 14.44° C | 77% | 1017 hPa | 0 mm | - | - | - |
| 1787488834 | 11.67° C | 82% | 1017 hPa | 0 mm | - | - | - |
| 1787487874 | 11.67° C | 82% | 1017 hPa | 0 mm | - | - | - |
| 1787486913 | 12.22° C | 82% | 1017 hPa | 0 mm | - | - | - |
| 1787485953 | 12.78° C | 82% | 1017 hPa | 0 mm | - | - | - |
| 1787484992 | 8.89° C | 81% | 1017 hPa | 0 mm | - | - | - |
| 1787484032 | 9.44° C | 81% | 1017 hPa | 0 mm | - | - | - |
* Rain latest hour (hover to see other rain measurements)
** Current wind speed in m/s (hover to see current wind gust speed)